Airport ID:KSMD
Update Time (UTC):02/12/2020 00:42
Wind Speed (Knots):14
Wind Direction (Magnetic):270
Temperature (°C):1.1
Dew Point (°C):-2.4
Humidity (%):76
Altimeter (inHg):30.02
Density Altitude (Feet):
Visibility (Miles):10
Clouds (Hundreds of feet):OVC027
Present Weather:
METAR:METAR KSMD 020040Z AUTO 27014KT 10SM OVC027 01/M02 A3002 RMK A01

The data displayed is for advisory purposes only and is not to be used for flight planning or operations.